createdAt,value
2019-02-07T00:00:34.235Z,92.90
2019-02-07T00:03:03.071Z,92.70
2019-02-07T00:05:31.903Z,92.70
2019-02-07T00:08:00.775Z,92.70
2019-02-07T00:10:29.651Z,92.70
2019-02-07T00:12:58.784Z,92.60
2019-02-07T00:15:27.663Z,92.70
2019-02-07T00:17:56.536Z,92.70
2019-02-07T00:20:25.463Z,92.60
2019-02-07T00:22:54.543Z,92.70
2019-02-07T00:25:23.421Z,92.60
2019-02-07T00:27:52.650Z,92.70
2019-02-07T00:30:22.724Z,92.70
2019-02-07T00:32:51.890Z,92.80
2019-02-07T00:35:20.722Z,92.80
2019-02-07T00:37:49.595Z,92.80
2019-02-07T00:40:20.442Z,92.90
2019-02-07T00:42:49.379Z,92.90
2019-02-07T00:45:19.447Z,92.90
2019-02-07T00:47:49.221Z,92.90
2019-02-07T00:50:18.655Z,92.90
2019-02-07T00:52:47.535Z,92.90
2019-02-07T00:55:17.703Z,92.90
2019-02-07T00:57:46.635Z,93.00
2019-02-07T01:00:23.783Z,93.00
2019-02-07T01:02:52.959Z,93.00
2019-02-07T01:05:22.890Z,93.00
2019-02-07T01:07:52.662Z,93.00
2019-02-07T01:10:31.561Z,93.10
2019-02-07T01:13:00.435Z,93.30
2019-02-07T01:15:29.903Z,93.10
2019-02-07T01:17:58.733Z,93.10
2019-02-07T01:20:27.612Z,93.20
2019-02-07T01:22:56.890Z,93.10
2019-02-07T01:25:26.121Z,93.10
2019-02-07T01:27:55.503Z,93.10
2019-02-07T01:30:26.076Z,93.10
2019-02-07T01:32:55.211Z,93.10
2019-02-07T01:35:24.095Z,93.10
2019-02-07T01:37:53.366Z,93.20
2019-02-07T01:40:22.803Z,93.50
2019-02-07T01:42:51.680Z,93.20
2019-02-07T01:45:24.836Z,93.30
2019-02-07T01:47:53.707Z,93.30
2019-02-07T01:50:24.390Z,93.20
2019-02-07T01:52:53.623Z,93.30
2019-02-07T01:55:22.894Z,93.30
2019-02-07T01:57:51.812Z,93.30
2019-02-07T02:00:21.095Z,93.30
2019-02-07T02:02:49.968Z,93.30
2019-02-07T02:05:19.946Z,93.40
2019-02-07T02:07:50.586Z,93.40
2019-02-07T02:10:22.028Z,93.40
2019-02-07T02:12:50.898Z,93.40
2019-02-07T02:15:24.480Z,93.40
2019-02-07T02:17:51.750Z,93.40
2019-02-07T02:20:23.223Z,93.40
2019-02-07T02:22:52.804Z,93.40
2019-02-07T02:25:21.982Z,93.30
2019-02-07T02:27:50.916Z,93.30
2019-02-07T02:30:25.070Z,93.40
2019-02-07T02:32:53.905Z,93.30
2019-02-07T02:35:23.266Z,93.30
2019-02-07T02:37:52.106Z,93.40
2019-02-07T02:40:21.379Z,93.40
2019-02-07T02:42:50.202Z,93.40
2019-02-07T02:45:21.083Z,93.40
2019-02-07T02:47:50.113Z,93.40
2019-02-07T02:50:20.391Z,93.40
2019-02-07T02:52:49.236Z,93.50
2019-02-07T02:55:25.446Z,93.50
2019-02-07T02:57:54.281Z,93.50
2019-02-07T03:00:39.788Z,93.90
2019-02-07T03:03:19.310Z,93.50
2019-02-07T03:06:01.999Z,93.40
2019-02-07T03:08:47.699Z,93.40
2019-02-07T03:11:36.462Z,93.50
2019-02-07T03:14:23.468Z,93.50
2019-02-07T03:17:08.648Z,93.40
2019-02-07T03:19:45.202Z,93.40
2019-02-07T03:22:21.591Z,93.40
2019-02-07T03:25:08.514Z,93.50
2019-02-07T03:27:44.711Z,93.40
2019-02-07T03:30:20.913Z,93.50
2019-02-07T03:32:57.220Z,93.50
2019-02-07T03:35:27.627Z,93.50
2019-02-07T03:38:16.268Z,93.60
2019-02-07T03:40:55.738Z,93.60
2019-02-07T03:43:31.974Z,93.70
2019-02-07T03:46:05.082Z,93.60
2019-02-07T03:48:44.498Z,93.70
2019-02-07T03:51:32.976Z,93.70
2019-02-07T03:54:04.562Z,93.70
2019-02-07T03:56:44.182Z,93.60
2019-02-07T03:59:24.168Z,93.60
2019-02-07T04:01:54.572Z,93.60
2019-02-07T04:04:41.233Z,93.60
2019-02-07T04:07:24.322Z,93.70
2019-02-07T04:09:54.866Z,93.70
2019-02-07T04:12:37.564Z,93.70
2019-02-07T04:15:12.319Z,93.70
2019-02-07T04:18:01.018Z,93.70
2019-02-07T04:20:37.504Z,93.70
2019-02-07T04:23:13.911Z,93.60
2019-02-07T04:25:47.301Z,93.70
2019-02-07T04:28:23.738Z,93.70
2019-02-07T04:31:06.549Z,93.70
2019-02-07T04:33:52.360Z,93.70
2019-02-07T04:36:39.074Z,94.10
2019-02-07T04:39:26.976Z,93.80
2019-02-07T04:42:09.472Z,93.80
2019-02-07T04:44:39.927Z,93.80
2019-02-07T04:47:22.705Z,93.80
2019-02-07T04:49:53.156Z,93.80
2019-02-07T04:52:40.141Z,93.80
2019-02-07T04:55:13.269Z,93.70
2019-02-07T04:57:44.044Z,93.70
2019-02-07T05:00:34.716Z,93.70
2019-02-07T05:03:17.333Z,93.80
2019-02-07T05:05:50.508Z,93.80
2019-02-07T05:08:24.001Z,93.80
2019-02-07T05:10:54.465Z,93.80
2019-02-07T05:13:41.113Z,93.90
2019-02-07T05:16:11.563Z,93.90
2019-02-07T05:18:54.352Z,93.90
2019-02-07T05:21:27.492Z,93.90
2019-02-07T05:24:00.696Z,93.90
2019-02-07T05:26:31.117Z,94.00
2019-02-07T05:29:07.602Z,94.00
2019-02-07T05:31:43.796Z,94.00
2019-02-07T05:34:17.003Z,93.90
2019-02-07T05:36:47.871Z,93.90
2019-02-07T05:39:34.617Z,93.90
2019-02-07T05:42:07.750Z,93.90
2019-02-07T05:44:38.194Z,93.90
2019-02-07T05:47:11.810Z,93.90
2019-02-07T05:49:45.438Z,93.90
2019-02-07T05:52:22.105Z,93.90
2019-02-07T05:55:04.475Z,93.90
2019-02-07T05:57:40.946Z,93.90
2019-02-07T06:00:30.127Z,93.90
2019-02-07T06:03:12.744Z,93.90
2019-02-07T06:05:51.786Z,93.90
2019-02-07T06:08:28.372Z,93.90
2019-02-07T06:11:04.892Z,93.90
2019-02-07T06:13:41.411Z,94.00
2019-02-07T06:16:18.010Z,94.00
2019-02-07T06:18:51.157Z,94.00
2019-02-07T06:21:37.225Z,94.00
2019-02-07T06:24:13.295Z,94.00
2019-02-07T06:26:52.486Z,94.30
2019-02-07T06:29:39.202Z,94.00
2019-02-07T06:32:09.752Z,94.10
2019-02-07T06:34:55.451Z,94.10
2019-02-07T06:37:28.488Z,94.10
2019-02-07T06:40:17.724Z,94.10
2019-02-07T06:42:54.243Z,94.10
2019-02-07T06:45:27.654Z,94.10
2019-02-07T06:48:13.479Z,94.10
2019-02-07T06:50:49.879Z,94.10
2019-02-07T06:53:23.282Z,94.10
2019-02-07T06:55:56.426Z,94.00
2019-02-07T06:58:32.812Z,94.00
2019-02-07T07:01:09.332Z,94.10
2019-02-07T07:03:45.438Z,94.10
2019-02-07T07:06:25.120Z,94.20
2019-02-07T07:09:07.662Z,94.10
2019-02-07T07:11:52.858Z,94.10
2019-02-07T07:14:32.351Z,94.10
2019-02-07T07:17:02.799Z,94.20
2019-02-07T07:19:49.671Z,94.40
2019-02-07T07:22:23.234Z,94.10
2019-02-07T07:24:56.375Z,94.10
2019-02-07T07:27:35.846Z,94.10
2019-02-07T07:30:09.467Z,94.10
2019-02-07T07:32:56.790Z,94.00
2019-02-07T07:35:27.247Z,94.30
2019-02-07T07:38:06.378Z,94.00
2019-02-07T07:40:52.384Z,93.90
2019-02-07T07:43:38.073Z,94.00
2019-02-07T07:46:11.538Z,94.30
2019-02-07T07:48:57.762Z,93.90
2019-02-07T07:51:28.233Z,93.90
2019-02-07T07:53:58.658Z,93.90
2019-02-07T07:56:31.831Z,93.90
2019-02-07T07:59:05.295Z,93.90
2019-02-07T08:01:38.215Z,93.80
2019-02-07T08:04:14.655Z,93.80
2019-02-07T08:07:01.275Z,93.90
2019-02-07T08:09:37.915Z,93.80
2019-02-07T08:12:20.241Z,93.80
2019-02-07T08:14:53.387Z,93.70
2019-02-07T08:17:26.839Z,93.70
2019-02-07T08:20:09.457Z,93.70
2019-02-07T08:22:55.222Z,93.70
2019-02-07T08:25:38.070Z,93.60
2019-02-07T08:28:11.110Z,93.50
2019-02-07T08:30:42.287Z,93.60
2019-02-07T08:33:18.759Z,93.60
2019-02-07T08:36:01.079Z,93.60
2019-02-07T08:38:49.909Z,93.50
2019-02-07T08:41:22.931Z,93.50
2019-02-07T08:44:13.582Z,93.40
2019-02-07T08:46:42.976Z,93.30
2019-02-07T08:49:13.419Z,93.20
2019-02-07T08:51:43.978Z,93.20
2019-02-07T08:54:30.859Z,93.20
2019-02-07T08:57:07.007Z,93.20
2019-02-07T08:59:37.446Z,93.10
2019-02-07T09:02:10.822Z,93.00
2019-02-07T09:04:53.290Z,93.00
2019-02-07T09:07:39.979Z,93.00
2019-02-07T09:10:28.539Z,92.90
2019-02-07T09:13:13.994Z,92.80
2019-02-07T09:15:47.423Z,92.80
2019-02-07T09:18:23.595Z,92.70
2019-02-07T09:21:10.375Z,92.70
2019-02-07T09:23:58.854Z,92.50
2019-02-07T09:26:29.308Z,92.50
2019-02-07T09:29:02.565Z,92.40
2019-02-07T09:31:49.456Z,92.30
2019-02-07T09:34:34.884Z,92.30
2019-02-07T09:37:20.668Z,92.30
2019-02-07T09:39:51.111Z,92.20
2019-02-07T09:42:30.073Z,92.10
2019-02-07T09:45:03.226Z,92.00
2019-02-07T09:47:36.614Z,92.10
2019-02-07T09:50:26.727Z,91.90
2019-02-07T09:53:23.703Z,91.90
2019-02-07T09:55:45.881Z,92.20
2019-02-07T09:58:31.319Z,91.60
2019-02-07T10:01:04.380Z,91.60
2019-02-07T10:03:51.290Z,91.50
2019-02-07T10:06:25.018Z,91.80
2019-02-07T10:09:10.383Z,91.40
2019-02-07T10:11:43.710Z,91.30
2019-02-07T10:14:32.143Z,91.20
2019-02-07T10:17:11.585Z,91.20
2019-02-07T10:19:53.902Z,91.00
2019-02-07T10:22:24.355Z,91.00
2019-02-07T10:24:57.758Z,91.20
2019-02-07T10:27:30.995Z,90.70
2019-02-07T10:30:10.111Z,90.70
2019-02-07T10:32:56.863Z,90.80
2019-02-07T10:35:30.322Z,90.70
2019-02-07T10:38:16.971Z,90.60
2019-02-07T10:40:50.538Z,90.60
2019-02-07T10:43:23.967Z,90.30
2019-02-07T10:45:55.808Z,90.30
2019-02-07T10:48:31.827Z,90.20
2019-02-07T10:51:05.276Z,90.40
2019-02-07T10:53:51.093Z,90.00
2019-02-07T10:56:21.538Z,89.80
2019-02-07T10:59:04.051Z,89.50
2019-02-07T11:01:51.222Z,89.50
2019-02-07T11:04:33.903Z,89.50
2019-02-07T11:07:13.555Z,89.20
2019-02-07T11:10:00.613Z,89.30
2019-02-07T11:12:31.250Z,89.00
2019-02-07T11:15:01.702Z,88.80
2019-02-07T11:17:41.610Z,88.60
2019-02-07T11:20:35.262Z,88.50
2019-02-07T11:23:05.807Z,88.10
2019-02-07T11:25:53.711Z,87.80
2019-02-07T11:28:36.104Z,87.80
2019-02-07T11:31:12.478Z,87.70
2019-02-07T11:33:42.927Z,87.70
2019-02-07T11:36:31.880Z,87.70
2019-02-07T11:39:02.318Z,87.70
2019-02-07T11:41:32.947Z,88.20
2019-02-07T11:44:07.336Z,88.00
2019-02-07T11:46:40.478Z,88.20
2019-02-07T11:49:14.024Z,88.30
2019-02-07T11:52:01.078Z,88.60
2019-02-07T11:54:31.628Z,88.90
2019-02-07T11:57:07.748Z,89.30
2019-02-07T11:59:41.181Z,89.60
2019-02-07T12:02:19.955Z,89.90
2019-02-07T12:04:56.314Z,89.90
2019-02-07T12:07:44.930Z,89.90
2019-02-07T12:10:22.617Z,90.10
2019-02-07T12:12:55.826Z,90.20
2019-02-07T12:15:26.266Z,90.40
2019-02-07T12:18:08.833Z,90.50
2019-02-07T12:20:55.567Z,90.60
2019-02-07T12:23:44.288Z,90.70
2019-02-07T12:26:32.302Z,90.70
2019-02-07T12:29:13.076Z,90.80
2019-02-07T12:31:58.795Z,90.90
2019-02-07T12:34:29.239Z,91.00
2019-02-07T12:37:02.763Z,91.10
2019-02-07T12:39:49.770Z,91.20
2019-02-07T12:42:26.007Z,91.30
2019-02-07T12:44:56.446Z,91.30
2019-02-07T12:47:32.644Z,91.50
2019-02-07T12:50:05.887Z,91.50
2019-02-07T12:52:36.330Z,91.90
2019-02-07T12:55:09.374Z,91.70
2019-02-07T12:57:45.555Z,91.70
2019-02-07T13:00:29.143Z,91.80
2019-02-07T13:03:16.438Z,92.20
2019-02-07T13:05:49.869Z,91.90
2019-02-07T13:08:20.301Z,91.90
2019-02-07T13:10:56.625Z,92.00
2019-02-07T13:13:41.997Z,92.10
2019-02-07T13:16:28.936Z,92.10
2019-02-07T13:19:02.382Z,92.20
2019-02-07T13:21:41.983Z,92.20
2019-02-07T13:24:12.435Z,92.40
2019-02-07T13:26:49.167Z,92.40
2019-02-07T13:29:36.406Z,92.40
2019-02-07T13:32:24.936Z,92.60
2019-02-07T13:35:04.360Z,92.60
2019-02-07T13:37:34.788Z,92.70
2019-02-07T13:40:12.423Z,92.80
2019-02-07T13:42:42.867Z,92.90
2019-02-07T13:45:34.983Z,93.00
2019-02-07T13:48:08.531Z,93.00
2019-02-07T13:50:38.962Z,93.10
2019-02-07T13:53:12.129Z,93.20
2019-02-07T13:55:51.966Z,93.20
2019-02-07T13:58:25.386Z,93.30
2019-02-07T14:01:11.158Z,93.40
2019-02-07T14:03:58.203Z,93.40
2019-02-07T14:06:44.722Z,93.50
2019-02-07T14:09:26.795Z,93.60
2019-02-07T14:12:13.511Z,93.60
2019-02-07T14:15:00.361Z,93.70
2019-02-07T14:17:37.192Z,93.70
2019-02-07T14:20:13.185Z,93.80
2019-02-07T14:23:00.149Z,94.00
2019-02-07T14:25:46.282Z,94.00
2019-02-07T14:28:19.610Z,94.10
2019-02-07T14:30:58.679Z,94.10
2019-02-07T14:33:37.910Z,94.20
2019-02-07T14:36:24.723Z,94.20
2019-02-07T14:39:11.658Z,94.30
2019-02-07T14:41:44.711Z,94.30
2019-02-07T14:44:17.879Z,94.40
2019-02-07T14:46:49.703Z,94.40
2019-02-07T14:49:18.539Z,94.50
2019-02-07T14:51:47.411Z,94.50
2019-02-07T14:54:16.535Z,94.60
2019-02-07T14:56:45.415Z,94.70
2019-02-07T14:59:14.347Z,94.70
2019-02-07T15:01:43.225Z,94.80
2019-02-07T15:04:12.057Z,94.80
2019-02-07T15:06:40.914Z,94.80
2019-02-07T15:09:12.519Z,95.10
2019-02-07T15:11:41.594Z,94.90
2019-02-07T15:14:10.414Z,94.90
2019-02-07T15:16:39.379Z,94.90
2019-02-07T15:19:08.215Z,94.90
2019-02-07T15:21:37.079Z,94.90
2019-02-07T15:24:08.431Z,95.00
2019-02-07T15:26:37.573Z,95.00
2019-02-07T15:29:06.847Z,95.10
2019-02-07T15:31:35.670Z,95.10
2019-02-07T15:34:04.838Z,95.10
2019-02-07T15:36:33.671Z,95.20
2019-02-07T15:39:02.536Z,95.20
2019-02-07T15:41:31.363Z,95.30
2019-02-07T15:44:00.244Z,95.30
2019-02-07T15:46:29.071Z,95.30
2019-02-07T15:48:57.947Z,95.30
2019-02-07T15:51:26.780Z,95.30
2019-02-07T15:53:55.643Z,95.40
2019-02-07T15:56:24.783Z,95.30
2019-02-07T15:58:55.214Z,95.40
2019-02-07T16:01:25.624Z,95.40
2019-02-07T16:03:58.747Z,95.50
2019-02-07T16:06:27.575Z,95.50
2019-02-07T16:08:56.939Z,95.50
2019-02-07T16:11:25.768Z,95.50
2019-02-07T16:13:54.638Z,95.50
2019-02-07T16:16:23.468Z,95.50
2019-02-07T16:18:52.926Z,95.60
2019-02-07T16:21:21.754Z,95.60
2019-02-07T16:23:50.731Z,95.60
2019-02-07T16:26:19.562Z,95.60
2019-02-07T16:28:48.427Z,95.70
2019-02-07T16:31:17.260Z,95.70
2019-02-07T16:33:46.143Z,95.70
2019-02-07T16:36:15.964Z,95.70
2019-02-07T16:38:44.830Z,95.70
2019-02-07T16:41:13.663Z,95.80
2019-02-07T16:43:42.533Z,95.80
2019-02-07T16:46:11.364Z,95.80
2019-02-07T16:48:40.232Z,95.80
2019-02-07T16:51:09.060Z,95.80
2019-02-07T16:53:37.931Z,95.90
2019-02-07T16:56:07.103Z,95.90
2019-02-07T16:58:35.930Z,95.90
2019-02-07T17:01:07.077Z,96.30
2019-02-07T17:03:35.943Z,96.00
2019-02-07T17:06:05.992Z,96.00
2019-02-07T17:08:34.865Z,96.10
2019-02-07T17:11:04.338Z,96.00
2019-02-07T17:13:33.164Z,96.10
2019-02-07T17:16:02.139Z,96.10
2019-02-07T17:18:30.998Z,96.10
2019-02-07T17:21:11.202Z,96.10
2019-02-07T17:23:30.348Z,96.10
2019-02-07T17:25:59.215Z,96.10
2019-02-07T17:28:28.043Z,96.10
2019-02-07T17:30:56.919Z,96.10
2019-02-07T17:33:25.779Z,96.20
2019-02-07T17:35:54.618Z,96.20
2019-02-07T17:38:23.490Z,96.20
2019-02-07T17:40:52.753Z,96.20
2019-02-07T17:43:21.584Z,96.30
2019-02-07T17:45:50.452Z,96.20
2019-02-07T17:48:19.326Z,96.20
2019-02-07T17:50:49.564Z,96.30
2019-02-07T17:53:21.204Z,96.30
2019-02-07T17:55:50.478Z,96.30
2019-02-07T17:58:19.306Z,96.30
2019-02-07T18:01:01.515Z,96.40
2019-02-07T18:03:30.484Z,96.40
2019-02-07T18:05:59.319Z,96.50
2019-02-07T18:08:28.802Z,96.50
2019-02-07T18:10:57.656Z,96.50
2019-02-07T18:13:26.481Z,96.50
2019-02-07T18:15:57.361Z,96.60
2019-02-07T18:18:25.872Z,96.80
2019-02-07T18:21:06.767Z,96.50
2019-02-07T18:23:35.679Z,96.50
2019-02-07T18:26:05.010Z,96.50
2019-02-07T18:28:33.987Z,96.50
2019-02-07T18:31:02.858Z,96.50
2019-02-07T18:33:31.682Z,96.50
2019-02-07T18:36:00.550Z,96.50
2019-02-07T18:38:29.800Z,96.50
2019-02-07T18:40:58.633Z,96.60
2019-02-07T18:43:27.498Z,96.50
2019-02-07T18:45:56.327Z,96.60
2019-02-07T18:48:25.206Z,96.50
2019-02-07T18:50:54.019Z,96.60
2019-02-07T18:53:23.294Z,96.60
2019-02-07T18:55:52.209Z,96.60
2019-02-07T18:58:21.090Z,96.70
2019-02-07T19:00:49.922Z,96.70
2019-02-07T19:03:18.799Z,96.70
2019-02-07T19:05:47.627Z,96.70
2019-02-07T19:08:16.507Z,96.80
2019-02-07T19:10:45.355Z,96.80
2019-02-07T19:13:14.235Z,96.80
2019-02-07T19:15:48.988Z,96.90
2019-02-07T19:18:17.857Z,96.90
2019-02-07T19:20:46.719Z,96.90
2019-02-07T19:23:15.551Z,96.90
2019-02-07T19:25:44.417Z,96.90
2019-02-07T19:28:13.298Z,96.90
2019-02-07T19:30:42.126Z,97.00
2019-02-07T19:33:10.991Z,97.00
2019-02-07T19:35:39.863Z,97.00
2019-02-07T19:38:08.698Z,97.00
2019-02-07T19:40:37.867Z,97.00
2019-02-07T19:43:06.952Z,96.90
2019-02-07T19:45:35.777Z,97.00
2019-02-07T19:48:04.952Z,97.00
2019-02-07T19:50:33.827Z,96.90
2019-02-07T19:53:02.656Z,96.90
2019-02-07T19:55:32.736Z,96.90
2019-02-07T19:58:01.607Z,96.90
2019-02-07T20:00:33.839Z,96.90
2019-02-07T20:03:02.710Z,96.90
2019-02-07T20:05:31.579Z,96.80
2019-02-07T20:08:00.410Z,96.80
2019-02-07T20:10:30.001Z,96.90
2019-02-07T20:12:59.345Z,96.80
2019-02-07T20:15:33.141Z,96.90
2019-02-07T20:18:02.033Z,96.90
2019-02-07T20:20:31.171Z,96.90
2019-02-07T20:23:00.438Z,96.90
2019-02-07T20:25:29.607Z,96.90
2019-02-07T20:27:59.082Z,96.90
2019-02-07T20:30:29.953Z,96.90
2019-02-07T20:32:59.027Z,97.00
2019-02-07T20:35:28.111Z,96.90
2019-02-07T20:37:56.970Z,97.00
2019-02-07T20:40:27.636Z,97.00
2019-02-07T20:42:57.511Z,97.00
2019-02-07T20:45:26.482Z,97.00
2019-02-07T20:47:56.171Z,97.00
2019-02-07T20:50:29.008Z,97.00
2019-02-07T20:52:57.989Z,97.00
2019-02-07T20:55:27.511Z,97.00
2019-02-07T20:57:57.079Z,97.00
2019-02-07T21:00:28.531Z,97.10
2019-02-07T21:02:57.368Z,97.00
2019-02-07T21:05:27.843Z,97.00
2019-02-07T21:07:57.018Z,97.00
2019-02-07T21:10:34.031Z,97.00
2019-02-07T21:13:02.899Z,97.00
2019-02-07T21:15:31.730Z,96.90
2019-02-07T21:18:00.603Z,97.00
2019-02-07T21:20:30.963Z,97.10
2019-02-07T21:23:01.105Z,97.10
2019-02-07T21:25:32.750Z,97.10
2019-02-07T21:28:01.585Z,97.10
2019-02-07T21:30:32.224Z,97.00
2019-02-07T21:33:01.092Z,97.10
2019-02-07T21:35:30.450Z,97.10
2019-02-07T21:37:59.294Z,97.10
2019-02-07T21:40:30.283Z,97.10
2019-02-07T21:43:00.396Z,97.10
2019-02-07T21:45:33.563Z,97.10
2019-02-07T21:48:02.529Z,97.10
2019-02-07T21:50:32.271Z,97.10
2019-02-07T21:53:01.140Z,97.10
2019-02-07T21:55:32.179Z,96.90
2019-02-07T21:58:01.015Z,97.00
2019-02-07T22:00:39.214Z,97.10
2019-02-07T22:03:10.076Z,97.00
2019-02-07T22:05:38.895Z,97.00
2019-02-07T22:08:08.875Z,97.00
2019-02-07T22:10:37.749Z,97.00
2019-02-07T22:13:07.344Z,97.00
2019-02-07T22:15:36.267Z,97.00
2019-02-07T22:18:05.883Z,97.00
2019-02-07T22:20:34.759Z,97.00
2019-02-07T22:23:03.593Z,97.00
2019-02-07T22:25:32.470Z,97.00
2019-02-07T22:28:01.309Z,97.00
2019-02-07T22:30:33.059Z,96.90
2019-02-07T22:33:01.991Z,96.70
2019-02-07T22:35:31.159Z,97.00
2019-02-07T22:38:00.595Z,97.00
2019-02-07T22:40:29.453Z,97.00
2019-02-07T22:42:59.887Z,97.00
2019-02-07T22:45:29.358Z,97.00
2019-02-07T22:47:58.186Z,97.00
2019-02-07T22:50:28.859Z,97.00
2019-02-07T22:53:00.628Z,97.00
2019-02-07T22:55:29.590Z,97.00
2019-02-07T22:57:58.425Z,97.00
2019-02-07T23:00:34.819Z,97.10
2019-02-07T23:03:12.441Z,97.00
2019-02-07T23:05:41.311Z,97.00
2019-02-07T23:08:10.839Z,97.00
2019-02-07T23:10:39.917Z,97.00
2019-02-07T23:13:09.242Z,97.40
2019-02-07T23:15:38.315Z,97.00
2019-02-07T23:18:08.714Z,97.00
2019-02-07T23:20:37.594Z,97.10
2019-02-07T23:23:11.491Z,97.10
2019-02-07T23:25:40.768Z,97.00
2019-02-07T23:28:10.443Z,97.00
2019-02-07T23:30:39.271Z,97.10
2019-02-07T23:33:08.134Z,97.10
2019-02-07T23:35:36.978Z,97.10
2019-02-07T23:38:06.110Z,97.10
2019-02-07T23:40:34.990Z,97.10
2019-02-07T23:43:05.254Z,97.10
2019-02-07T23:45:34.090Z,97.20
2019-02-07T23:48:02.970Z,97.20
2019-02-07T23:50:31.852Z,97.30
2019-02-07T23:53:00.675Z,97.30
2019-02-07T23:55:29.550Z,97.30
2019-02-07T23:58:07.877Z,97.40
